Time;durP1;ratioP1;P1;durP2;ratioP2;P2;SDS_P1;SDS_P2;PMS_P1;PMS_P2;Temp;Humidity;BMP_temperature;BMP_pressure;BME280_temperature;BME280_humidity;BME280_pressure;Samples;Min_cycle;Max_cycle;Signal;HPM_P1;HPM_P2
2022/09/04 00:01:28;;;;;;;53.10;39.30;;;15.80;99.90;;;;;;5026112;28;20048;-69
2022/09/04 00:04:21;;;;;;;42.58;34.05;;;15.80;99.90;;;;;;5027586;28;20036;-69
2022/09/04 00:07:03;;;;;;;58.53;41.22;;;15.80;99.90;;;;;;5023034;28;20040;-69
2022/09/04 00:09:38;;;;;;;54.10;39.72;;;15.80;99.90;;;;;;5022044;28;20899;-69
2022/09/04 00:12:10;;;;;;;57.63;42.35;;;15.70;99.90;;;;;;5026048;28;20037;-68
2022/09/04 00:14:53;;;;;;;58.42;43.60;;;15.80;99.90;;;;;;5006188;28;20045;-69
2022/09/04 00:17:27;;;;;;;60.30;43.22;;;15.80;99.90;;;;;;5024336;28;20041;-68
2022/09/04 00:20:00;;;;;;;54.17;38.88;;;15.80;99.90;;;;;;5027496;28;20045;-69
2022/09/04 00:22:51;;;;;;;49.50;35.70;;;15.80;99.90;;;;;;5086462;28;20073;-69
2022/09/04 00:25:41;;;;;;;51.97;39.40;;;15.80;99.90;;;;;;5101019;28;20126;-69
2022/09/04 00:28:15;;;;;;;65.25;43.88;;;15.80;99.90;;;;;;5103501;28;20150;-69
2022/09/04 00:30:49;;;;;;;69.82;46.65;;;15.80;99.90;;;;;;5105798;28;20454;-69
2022/09/04 00:33:33;;;;;;;79.50;49.97;;;15.80;99.90;;;;;;5087319;28;20378;-68
2022/09/04 00:36:02;;;;;;;72.40;45.80;;;15.80;99.90;;;;;;5107384;28;20066;-68
2022/09/04 00:38:48;;;;;;;77.70;47.90;;;15.80;99.90;;;;;;5105179;28;20097;-69
2022/09/04 00:41:42;;;;;;;83.28;49.95;;;15.80;99.90;;;;;;5104873;28;20096;-69
2022/09/04 00:44:39;;;;;;;78.88;48.55;;;15.80;99.90;;;;;;5094127;28;20035;-69
2022/09/04 00:47:16;;;;;;;89.43;52.72;;;15.80;99.90;;;;;;5102481;28;20031;-70
2022/09/04 00:50:10;;;;;;;86.05;51.92;;;15.80;99.90;;;;;;5098682;28;20758;-68
2022/09/04 00:53:24;;;;;;;90.93;54.08;;;15.90;99.90;;;;;;5086604;28;20062;-69
2022/09/04 00:56:21;;;;;;;80.65;51.33;;;15.90;99.90;;;;;;5043784;28;20063;-68
2022/09/04 00:59:05;;;;;;;90.40;52.85;;;15.90;99.90;;;;;;5021329;28;20195;-69
2022/09/04 01:01:31;;;;;;;81.75;50.88;;;15.90;99.90;;;;;;5017223;28;20388;-68
2022/09/04 01:04:17;;;;;;;96.28;54.80;;;16.00;99.90;;;;;;5027977;28;20582;-70
2022/09/04 01:07:22;;;;;;;73.88;47.47;;;16.00;99.90;;;;;;5013273;28;20036;-69
2022/09/04 01:09:51;;;;;;;89.25;50.65;;;16.00;99.90;;;;;;5023283;28;20103;-70
2022/09/04 01:12:36;;;;;;;71.95;47.35;;;16.00;99.90;;;;;;5020443;28;20041;-68
2022/09/04 01:15:15;;;;;;;75.38;47.67;;;16.00;99.90;;;;;;5026800;28;20037;-68
2022/09/04 01:18:19;;;;;;;80.47;50.03;;;15.90;99.90;;;;;;5001782;28;20090;-68
2022/09/04 01:21:09;;;;;;;71.25;45.67;;;16.00;99.90;;;;;;5014309;28;20095;-68
2022/09/04 01:24:09;;;;;;;75.72;48.40;;;16.00;99.90;;;;;;5029337;28;20482;-68
2022/09/04 01:26:57;;;;;;;72.97;48.05;;;16.00;99.90;;;;;;5045073;28;20102;-68
2022/09/04 01:29:51;;;;;;;87.22;51.78;;;16.00;99.90;;;;;;5047376;28;20036;-68
2022/09/04 01:32:28;;;;;;;87.95;53.13;;;16.00;99.90;;;;;;5106272;28;20038;-67
2022/09/04 01:35:13;;;;;;;73.25;47.95;;;15.90;99.90;;;;;;5112376;27;20035;-68
2022/09/04 01:38:00;;;;;;;79.28;50.67;;;16.00;99.90;;;;;;5087650;28;20122;-68
2022/09/04 01:40:46;;;;;;;95.50;53.80;;;15.90;99.90;;;;;;5092492;28;20093;-68
2022/09/04 01:43:20;;;;;;;103.43;56.70;;;16.00;99.90;;;;;;5107024;27;20043;-68
2022/09/04 01:46:17;;;;;;;102.35;56.65;;;16.00;99.90;;;;;;5110769;27;20409;-67
2022/09/04 01:49:06;;;;;;;86.15;52.55;;;16.00;99.90;;;;;;5106700;27;20035;-68
2022/09/04 01:51:42;;;;;;;91.18;54.83;;;16.10;99.90;;;;;;5108813;27;20050;-67
2022/09/04 01:54:43;;;;;;;83.97;52.00;;;16.10;99.90;;;;;;5116354;27;20030;-68
2022/09/04 01:57:39;;;;;;;82.63;51.15;;;16.10;99.90;;;;;;5082898;27;20078;-68
2022/09/04 02:00:16;;;;;;;89.00;52.50;;;16.20;99.90;;;;;;5108311;27;20093;-68
2022/09/04 02:03:03;;;;;;;86.65;51.83;;;16.20;99.90;;;;;;5104896;27;20114;-67
2022/09/04 02:05:36;;;;;;;90.40;52.75;;;16.20;99.90;;;;;;5109845;27;20028;-68
2022/09/04 02:08:34;;;;;;;79.60;49.58;;;16.20;99.90;;;;;;5110233;27;20053;-68
2022/09/04 02:11:21;;;;;;;80.38;47.80;;;16.20;99.90;;;;;;5030161;28;20075;-68
2022/09/04 02:14:11;;;;;;;87.90;48.75;;;16.20;99.90;;;;;;5025857;28;20520;-68
2022/09/04 02:16:55;;;;;;;82.32;47.75;;;16.30;99.90;;;;;;5028097;28;20028;-68
2022/09/04 02:19:56;;;;;;;72.28;46.15;;;16.30;99.90;;;;;;5028630;28;20124;-68
2022/09/04 02:22:43;;;;;;;63.33;42.38;;;16.30;99.90;;;;;;5033779;28;20119;-68
2022/09/04 02:25:17;;;;;;;53.50;37.00;;;16.40;99.90;;;;;;5029163;28;20036;-68
2022/09/04 02:28:05;;;;;;;55.13;38.58;;;16.40;99.90;;;;;;5030019;28;20077;-68
2022/09/04 02:30:42;;;;;;;54.55;38.90;;;16.50;99.90;;;;;;5026046;28;20026;-68
2022/09/04 02:33:21;;;;;;;54.67;37.60;;;16.50;99.90;;;;;;5013854;28;20046;-69
2022/09/04 02:36:01;;;;;;;52.28;37.78;;;16.50;99.90;;;;;;5032483;28;20392;-67
2022/09/04 02:38:29;;;;;;;;;;;16.60;99.90;;;;;;5032330;28;20037;-69
2022/09/04 02:41:29;;;;;;;41.58;31.65;;;16.60;99.90;;;;;;5026140;28;19921;-69
2022/09/04 02:44:16;;;;;;;52.40;36.35;;;16.60;99.90;;;;;;5015811;28;20741;-69
2022/09/04 02:46:48;;;;;;;50.47;35.10;;;16.70;99.90;;;;;;5066229;27;20036;-69
2022/09/04 02:49:34;;;;;;;51.35;34.42;;;16.90;99.90;;;;;;5107875;27;20473;-69
2022/09/04 02:52:13;;;;;;;46.05;33.80;;;16.90;99.90;;;;;;5112554;27;20421;-69
2022/09/04 02:54:57;;;;;;;48.42;33.75;;;17.00;99.90;;;;;;5093032;28;20036;-70
2022/09/04 02:57:38;;;;;;;39.92;28.08;;;17.20;99.90;;;;;;5092720;28;20043;-69
2022/09/04 03:00:14;;;;;;;38.72;27.60;;;17.30;99.90;;;;;;5089706;28;20114;-69
2022/09/04 03:02:40;;;;;;;36.28;25.70;;;17.50;99.90;;;;;;5107871;27;20043;-69
2022/09/04 03:05:19;;;;;;;36.58;25.38;;;17.60;99.90;;;;;;5107486;28;20035;-69
2022/09/04 03:08:03;;;;;;;;;;;17.70;99.90;;;;;;5103582;28;20027;-69
2022/09/04 03:10:55;;;;;;;28.40;21.45;;;17.70;99.90;;;;;;5107294;28;19923;-69
2022/09/04 03:13:47;;;;;;;28.25;21.10;;;17.80;99.90;;;;;;5106273;27;20035;-69
2022/09/04 03:16:39;;;;;;;24.88;18.35;;;17.90;99.90;;;;;;5089661;28;20105;-69
2022/09/04 03:19:36;;;;;;;21.58;16.98;;;17.90;99.90;;;;;;5106731;28;20042;-69
2022/09/04 03:22:13;;;;;;;22.88;16.33;;;18.00;99.90;;;;;;5103512;27;20028;-68
2022/09/04 03:25:09;;;;;;;21.90;15.70;;;18.00;99.90;;;;;;5086149;28;20506;-68
2022/09/04 03:27:35;;;;;;;18.85;15.68;;;18.10;99.90;;;;;;5104485;27;20064;-68
2022/09/04 03:30:00;;;;;;;20.92;14.88;;;18.10;99.90;;;;;;5092593;28;20046;-68
2022/09/04 03:32:50;;;;;;;18.30;14.15;;;18.10;99.90;;;;;;5109600;27;20038;-68
2022/09/04 03:35:19;;;;;;;17.98;13.00;;;18.10;99.90;;;;;;5107681;28;20039;-67
2022/09/04 03:38:10;;;;;;;18.73;12.93;;;18.10;99.90;;;;;;5104885;27;20036;-68
2022/09/04 03:40:44;;;;;;;15.18;11.38;;;18.10;99.90;;;;;;5105042;28;20677;-69
2022/09/04 03:43:42;;;;;;;16.80;11.15;;;18.10;99.90;;;;;;5108309;28;20044;-69
2022/09/04 03:46:28;;;;;;;15.73;11.20;;;18.10;99.90;;;;;;5088339;28;20340;-68
2022/09/04 03:48:54;;;;;;;17.15;12.20;;;18.20;99.90;;;;;;5106075;27;20932;-68
2022/09/04 03:51:25;;;;;;;21.38;12.45;;;18.10;99.90;;;;;;5090847;27;20121;-68
2022/09/04 03:54:00;;;;;;;19.67;11.85;;;18.10;99.90;;;;;;5108311;28;20053;-68
2022/09/04 03:56:44;;;;;;;18.77;11.45;;;18.00;99.90;;;;;;5112276;27;20118;-69
2022/09/04 03:59:57;;;;;;;17.85;12.43;;;18.00;99.90;;;;;;5108240;28;20047;-68
2022/09/04 04:02:29;;;;;;;20.27;12.25;;;18.00;99.90;;;;;;5088447;27;20669;-69
2022/09/04 04:05:07;;;;;;;16.13;11.60;;;18.00;99.90;;;;;;5105989;28;20422;-69
2022/09/04 04:08:10;;;;;;;14.43;10.77;;;18.00;99.90;;;;;;5106112;27;20035;-68
2022/09/04 04:10:55;;;;;;;14.48;10.32;;;18.00;99.90;;;;;;5111369;27;20088;-69
2022/09/04 04:14:14;;;;;;;14.55;10.98;;;18.10;99.90;;;;;;5106384;28;20055;-68
2022/09/04 04:16:42;;;;;;;16.85;10.60;;;18.00;99.90;;;;;;5013243;28;20104;-69
2022/09/04 04:19:19;;;;;;;18.23;9.90;;;18.00;99.90;;;;;;4996952;28;20385;-68
2022/09/04 04:22:16;;;;;;;14.13;9.32;;;18.00;99.90;;;;;;5013797;28;20037;-69
2022/09/04 04:25:10;;;;;;;16.33;10.35;;;17.90;99.90;;;;;;4965991;28;20046;-68
2022/09/04 04:27:54;;;;;;;13.48;8.18;;;17.90;99.90;;;;;;4964216;28;20101;-68
2022/09/04 04:30:21;;;;;;;17.45;8.45;;;17.90;99.90;;;;;;4963227;28;20039;-69
2022/09/04 04:32:46;;;;;;;13.48;8.15;;;17.90;99.90;;;;;;4962629;28;20938;-68
2022/09/04 04:35:28;;;;;;;14.45;8.07;;;17.90;99.90;;;;;;4965250;28;20042;-68
2022/09/04 04:38:17;;;;;;;14.02;9.10;;;17.90;99.90;;;;;;4963616;28;20039;-68
2022/09/04 04:40:51;;;;;;;10.70;7.18;;;17.80;99.90;;;;;;4953809;28;20039;-69
2022/09/04 04:43:40;;;;;;;13.10;6.30;;;17.80;99.90;;;;;;4964368;28;20111;-69
2022/09/04 04:46:33;;;;;;;15.25;6.05;;;17.80;99.90;;;;;;4959479;28;20499;-69
2022/09/04 04:49:28;;;;;;;13.73;7.28;;;17.90;99.90;;;;;;4982912;28;20784;-68
2022/09/04 04:52:18;;;;;;;11.02;5.00;;;17.80;99.90;;;;;;5002034;28;20124;-69
2022/09/04 04:55:05;;;;;;;10.43;4.97;;;17.70;99.90;;;;;;5009279;28;20196;-68
2022/09/04 04:57:45;;;;;;;10.20;4.15;;;17.60;99.90;;;;;;5010747;28;20038;-68
2022/09/04 05:00:20;;;;;;;13.38;4.35;;;17.60;99.90;;;;;;5052617;28;20527;-68
2022/09/04 05:03:17;;;;;;;11.30;3.85;;;17.60;99.90;;;;;;5105787;28;20028;-67
2022/09/04 05:05:49;;;;;;;8.20;3.55;;;17.60;99.90;;;;;;5103100;28;20430;-68
2022/09/04 05:08:23;;;;;;;7.90;3.28;;;17.60;99.90;;;;;;5106504;28;20042;-68
2022/09/04 05:11:20;;;;;;;9.60;3.15;;;17.70;99.90;;;;;;5109076;27;20071;-69
2022/09/04 05:14:01;;;;;;;9.18;3.00;;;17.70;99.90;;;;;;5101385;27;20050;-68
2022/09/04 05:16:47;;;;;;;8.50;2.85;;;17.70;99.90;;;;;;5107422;27;20031;-68
2022/09/04 05:19:37;;;;;;;7.72;2.83;;;17.70;99.90;;;;;;5110608;27;20035;-68
2022/09/04 05:22:21;;;;;;;7.38;2.58;;;17.70;99.90;;;;;;5106391;27;20028;-68
2022/09/04 05:25:20;;;;;;;7.85;2.70;;;17.70;99.90;;;;;;5090132;28;20156;-68
2022/09/04 05:27:56;;;;;;;6.50;2.50;;;17.70;99.90;;;;;;5112703;27;20543;-69
2022/09/04 05:30:41;;;;;;;7.82;2.55;;;17.70;99.90;;;;;;5105729;27;20334;-70
2022/09/04 05:33:09;;;;;;;7.70;3.38;;;17.70;99.90;;;;;;5109709;27;20514;-69
2022/09/04 05:35:46;;;;;;;9.85;2.75;;;17.80;99.90;;;;;;5109362;28;20042;-69
2022/09/04 05:38:38;;;;;;;9.00;2.78;;;17.80;99.90;;;;;;5106132;27;20030;-69
2022/09/04 05:41:28;;;;;;;7.10;2.40;;;17.80;99.90;;;;;;5102087;27;20047;-69
2022/09/04 05:44:12;;;;;;;6.35;2.47;;;17.80;99.90;;;;;;5091538;28;20397;-68
2022/09/04 05:46:50;;;;;;;6.22;2.55;;;17.80;99.90;;;;;;5107695;27;20027;-68
2022/09/04 05:49:43;;;;;;;6.15;2.17;;;17.80;99.90;;;;;;5115469;27;20055;-68
2022/09/04 05:52:12;;;;;;;5.78;2.00;;;17.90;99.90;;;;;;5105431;28;20024;-69
2022/09/04 05:54:56;;;;;;;8.95;2.75;;;17.90;99.90;;;;;;5110031;28;20550;-68
2022/09/04 05:57:36;;;;;;;12.50;2.92;;;17.90;99.90;;;;;;5112494;27;20035;-69
2022/09/04 06:00:02;;;;;;;8.45;2.28;;;17.90;99.90;;;;;;5110134;27;20059;-69
2022/09/04 06:03:03;;;;;;;8.35;2.65;;;18.00;99.90;;;;;;5106017;27;20027;-68
2022/09/04 06:06:02;;;;;;;7.25;2.40;;;18.00;99.90;;;;;;5118975;27;20038;-68
2022/09/04 06:08:42;;;;;;;6.13;2.28;;;18.00;99.90;;;;;;5109632;27;20031;-68
2022/09/04 06:11:08;;;;;;;7.93;2.25;;;18.10;99.90;;;;;;5104194;27;20035;-68
2022/09/04 06:13:59;;;;;;;8.10;2.78;;;18.20;99.90;;;;;;5103716;27;20497;-68
2022/09/04 06:16:40;;;;;;;8.55;2.40;;;18.30;99.90;;;;;;5094616;27;20066;-69
2022/09/04 06:19:35;;;;;;;8.57;2.55;;;18.40;99.90;;;;;;5098878;27;20039;-69
2022/09/04 06:22:06;;;;;;;11.73;2.45;;;18.50;99.90;;;;;;5101395;27;20111;-69
2022/09/04 06:24:38;;;;;;;7.10;1.98;;;18.60;99.90;;;;;;5106497;28;20042;-69
2022/09/04 06:27:16;;;;;;;8.15;2.33;;;18.70;99.90;;;;;;5090153;28;20027;-68
2022/09/04 06:29:53;;;;;;;5.95;1.88;;;18.70;99.90;;;;;;5106770;28;20123;-69
2022/09/04 06:32:59;;;;;;;7.93;1.92;;;18.70;99.90;;;;;;5104573;28;20489;-69
2022/09/04 06:36:07;;;;;;;8.50;2.00;;;18.70;99.90;;;;;;5107192;28;20821;-69
2022/09/04 06:38:51;;;;;;;8.07;2.17;;;18.70;99.90;;;;;;5103364;27;20039;-68
2022/09/04 06:41:28;;;;;;;8.18;2.33;;;18.70;99.90;;;;;;5107624;28;20427;-69
2022/09/04 06:44:05;;;;;;;8.10;1.95;;;18.70;99.90;;;;;;5107528;28;20028;-69
2022/09/04 06:46:49;;;;;;;7.00;1.83;;;18.80;99.90;;;;;;5110232;27;20027;-68
2022/09/04 06:49:51;;;;;;;8.88;2.28;;;18.80;99.90;;;;;;5109139;27;20028;-68
2022/09/04 06:52:27;;;;;;;8.65;2.20;;;18.90;99.90;;;;;;5104153;27;20066;-69
2022/09/04 06:54:56;;;;;;;7.97;2.00;;;18.90;99.90;;;;;;5108939;27;20024;-69
2022/09/04 06:57:45;;;;;;;5.80;2.23;;;18.90;99.90;;;;;;5116208;27;20066;-69
2022/09/04 07:00:15;;;;;;;8.35;2.08;;;19.00;99.90;;;;;;5106064;28;20020;-71
2022/09/04 07:02:47;;;;;;;6.35;1.92;;;19.00;99.90;;;;;;5098951;28;20027;-69
2022/09/04 07:05:41;;;;;;;12.23;2.00;;;19.00;99.90;;;;;;5097638;28;20063;-69
2022/09/04 07:08:30;;;;;;;5.35;2.08;;;19.00;99.90;;;;;;5123181;27;20050;-70
2022/09/04 07:11:30;;;;;;;8.02;1.85;;;19.00;99.90;;;;;;5116279;27;20352;-69
2022/09/04 07:14:26;;;;;;;9.48;1.83;;;19.10;99.90;;;;;;5116396;27;20028;-69
2022/09/04 07:17:16;;;;;;;9.80;2.35;;;19.10;99.90;;;;;;5077773;28;20119;-69
2022/09/04 07:20:09;;;;;;;6.75;2.25;;;19.20;99.90;;;;;;5104541;28;20039;-70
2022/09/04 07:22:51;;;;;;;6.80;1.85;;;19.20;99.90;;;;;;5102479;28;20079;-70
2022/09/04 07:25:38;;;;;;;6.00;1.88;;;19.30;99.90;;;;;;5099120;27;20556;-69
2022/09/04 07:28:27;;;;;;;8.63;2.65;;;19.40;99.90;;;;;;5100484;27;20408;-69
2022/09/04 07:31:23;;;;;;;;;;;19.50;99.90;;;;;;5106801;27;20035;-69
2022/09/04 07:34:04;;;;;;;9.68;2.30;;;19.60;99.90;;;;;;5089015;27;20006;-69
2022/09/04 07:36:58;;;;;;;8.80;2.35;;;19.60;99.90;;;;;;5108419;27;20054;-70
2022/09/04 07:39:42;;;;;;;7.07;1.90;;;19.70;99.90;;;;;;5090663;28;20024;-70
2022/09/04 07:42:17;;;;;;;9.32;2.00;;;19.70;99.90;;;;;;5112078;27;20062;-68
2022/09/04 07:45:21;;;;;;;9.90;2.08;;;19.70;99.90;;;;;;5105892;27;20077;-69
2022/09/04 07:47:56;;;;;;;6.47;1.92;;;19.70;99.90;;;;;;5106223;28;20057;-70
2022/09/04 07:50:28;;;;;;;9.07;2.03;;;19.80;99.90;;;;;;5086393;28;20043;-69
2022/09/04 07:53:22;;;;;;;6.93;2.17;;;19.80;99.90;;;;;;5103992;28;20046;-71
2022/09/04 07:55:51;;;;;;;8.63;2.13;;;19.90;99.90;;;;;;5112279;27;20039;-69
2022/09/04 07:58:32;;;;;;;8.73;2.03;;;20.00;99.90;;;;;;5108816;28;20059;-69
2022/09/04 08:01:18;;;;;;;10.05;2.72;;;20.00;99.90;;;;;;5105146;27;20067;-70
2022/09/04 08:03:59;;;;;;;9.75;2.20;;;20.10;99.90;;;;;;5102984;27;20032;-71
2022/09/04 08:06:37;;;;;;;6.97;1.95;;;20.10;99.90;;;;;;5106843;27;20031;-68
2022/09/04 08:09:16;;;;;;;7.45;2.17;;;20.30;99.90;;;;;;5101782;28;20727;-68
2022/09/04 08:11:47;;;;;;;9.93;2.35;;;20.30;99.90;;;;;;5102087;27;20053;-68
2022/09/04 08:14:42;;;;;;;9.75;2.20;;;20.30;99.90;;;;;;5109016;27;20028;-69
2022/09/04 08:17:19;;;;;;;10.45;2.50;;;20.20;99.90;;;;;;5108695;27;20046;-69
2022/09/04 08:20:03;;;;;;;10.32;2.05;;;20.10;99.90;;;;;;5110419;27;20134;-69
2022/09/04 08:22:40;;;;;;;6.88;2.17;;;20.10;99.90;;;;;;5112874;27;20035;-68
2022/09/04 08:25:12;;;;;;;8.20;2.35;;;20.00;99.90;;;;;;5106867;28;20044;-69
2022/09/04 08:27:46;;;;;;;6.93;2.05;;;20.00;99.90;;;;;;5107021;28;20077;-68
2022/09/04 08:30:15;;;;;;;11.90;2.72;;;20.00;99.90;;;;;;5089161;28;20126;-68
2022/09/04 08:33:14;;;;;;;11.63;3.13;;;20.00;99.90;;;;;;5090457;28;20028;-69
2022/09/04 08:35:40;;;;;;;8.27;2.42;;;20.00;99.90;;;;;;5110334;28;20319;-68
2022/09/04 08:38:40;;;;;;;11.48;2.85;;;20.10;99.90;;;;;;5106005;28;20070;-69
2022/09/04 08:41:24;;;;;;;;;;;20.10;99.90;;;;;;5110270;28;20056;-69
2022/09/04 08:44:11;;;;;;;7.25;2.65;;;20.20;99.90;;;;;;5090671;28;19919;-68
2022/09/04 08:47:16;;;;;;;12.07;2.22;;;20.20;99.90;;;;;;5102541;27;20087;-71
2022/09/04 08:50:00;;;;;;;11.30;2.60;;;20.30;99.90;;;;;;5105153;27;20030;-69
2022/09/04 08:52:38;;;;;;;8.57;2.05;;;20.40;99.90;;;;;;5106194;27;20485;-68
2022/09/04 08:55:38;;;;;;;8.38;2.35;;;20.50;99.90;;;;;;5110678;28;20555;-69
2022/09/04 08:58:15;;;;;;;7.90;2.17;;;20.50;99.90;;;;;;5104817;27;20039;-68
2022/09/04 09:00:41;;;;;;;8.82;2.20;;;20.50;99.90;;;;;;5086309;27;20084;-69
2022/09/04 09:03:53;;;;;;;9.40;2.30;;;20.50;99.90;;;;;;5105622;27;20031;-69
2022/09/04 09:06:57;;;;;;;11.15;2.42;;;20.50;99.90;;;;;;5109572;27;20037;-69
2022/09/04 09:09:54;;;;;;;7.15;2.10;;;20.60;99.90;;;;;;5107980;27;20048;-69
2022/09/04 09:12:53;;;;;;;8.77;2.15;;;20.90;99.90;;;;;;5091303;28;20409;-71
2022/09/04 09:15:38;;;;;;;7.87;2.03;;;21.00;99.90;;;;;;5115573;27;20118;-69
2022/09/04 09:18:10;;;;;;;8.90;2.47;;;21.00;99.90;;;;;;5132639;27;20023;-69
2022/09/04 09:21:23;;;;;;;10.50;2.45;;;20.90;99.90;;;;;;5132537;27;20043;-68
2022/09/04 09:23:58;;;;;;;8.95;2.20;;;20.80;99.90;;;;;;5127044;27;20112;-68
2022/09/04 09:26:28;;;;;;;7.32;2.00;;;20.70;99.90;;;;;;5113917;27;20027;-69
2022/09/04 09:29:37;;;;;;;12.18;2.75;;;20.60;99.90;;;;;;5130977;27;20417;-69
2022/09/04 09:32:39;;;;;;;11.95;2.42;;;20.60;99.90;;;;;;5132910;27;20035;-69
2022/09/04 09:35:07;;;;;;;7.38;2.63;;;20.50;99.90;;;;;;5132020;27;20062;-69
2022/09/04 09:38:01;;;;;;;11.57;2.30;;;20.50;99.90;;;;;;5132585;27;20657;-69
2022/09/04 09:40:35;;;;;;;8.27;2.08;;;20.50;99.90;;;;;;5130259;27;20088;-69
2022/09/04 09:43:15;;;;;;;9.43;2.80;;;20.50;99.90;;;;;;5107870;27;20054;-69
2022/09/04 09:46:14;;;;;;;10.48;3.05;;;20.50;99.90;;;;;;5132064;27;20148;-69
2022/09/04 09:48:55;;;;;;;10.33;3.17;;;20.50;99.90;;;;;;5132309;27;20031;-68
2022/09/04 09:51:42;;;;;;;9.30;2.90;;;20.60;99.90;;;;;;5129979;27;20091;-68
2022/09/04 09:54:14;;;;;;;10.02;2.80;;;20.60;99.90;;;;;;5113567;27;20599;-68
2022/09/04 09:57:14;;;;;;;10.18;2.97;;;20.70;99.90;;;;;;5129855;27;20031;-69
2022/09/04 09:59:48;;;;;;;8.93;2.25;;;20.80;99.90;;;;;;5132294;27;20035;-69
2022/09/04 10:02:39;;;;;;;14.70;2.78;;;20.80;99.90;;;;;;5132475;27;20027;-68
2022/09/04 10:05:13;;;;;;;10.93;2.63;;;20.80;99.90;;;;;;5132103;27;20031;-68
2022/09/04 10:08:21;;;;;;;9.57;2.20;;;20.90;99.90;;;;;;5128208;27;20535;-69
2022/09/04 10:11:05;;;;;;;7.30;2.07;;;20.90;99.90;;;;;;5121127;27;20566;-68
2022/09/04 10:14:04;;;;;;;9.23;2.80;;;20.90;99.90;;;;;;5123126;27;20031;-70
2022/09/04 10:17:06;;;;;;;8.50;2.58;;;20.90;99.90;;;;;;5129360;27;20043;-68
2022/09/04 10:20:09;;;;;;;12.32;3.05;;;20.90;99.90;;;;;;5111522;28;20492;-69
2022/09/04 10:23:06;;;;;;;13.50;2.40;;;20.90;99.90;;;;;;5097455;27;20110;-68
2022/09/04 10:25:59;;;;;;;12.73;2.65;;;21.00;99.90;;;;;;5121859;27;20398;-69
2022/09/04 10:28:24;;;;;;;8.30;2.67;;;21.10;99.90;;;;;;5119121;27;20433;-69
2022/09/04 10:31:11;;;;;;;10.98;2.75;;;21.10;99.90;;;;;;5110614;28;20032;-68
2022/09/04 10:34:01;;;;;;;7.15;2.10;;;21.20;99.90;;;;;;5110385;28;20042;-68
2022/09/04 10:36:46;;;;;;;8.70;2.40;;;21.30;99.90;;;;;;5110783;28;20497;-68
2022/09/04 10:42:34;;;;;;;10.80;2.80;;;21.30;99.90;;;;;;5110229;27;20128;-69
2022/09/04 10:45:19;;;;;;;9.93;2.50;;;21.20;99.90;;;;;;5092239;27;20031;-69
2022/09/04 10:48:49;;;;;;;8.70;2.20;;;21.20;99.90;;;;;;5130937;27;20035;-68
2022/09/04 10:51:48;;;;;;;9.77;2.38;;;21.10;99.90;;;;;;5015852;28;20042;-71
2022/09/04 10:54:32;;;;;;;9.38;2.55;;;21.10;99.90;;;;;;5025668;28;20092;-69
2022/09/04 10:57:44;;;;;;;12.88;2.08;;;21.10;99.90;;;;;;5027261;28;20045;-69
2022/09/04 11:00:12;;;;;;;7.22;2.20;;;21.10;99.90;;;;;;5022547;28;20496;-70
2022/09/04 11:03:02;;;;;;;12.48;2.42;;;21.20;99.90;;;;;;5023012;28;20048;-70
2022/09/04 11:06:01;;;;;;;;;;;21.30;99.90;;;;;;5024584;28;20212;-70
2022/09/04 11:08:47;;;;;;;9.20;2.90;;;21.30;99.90;;;;;;4967607;28;19914;-71
2022/09/04 11:11:30;;;;;;;9.68;2.33;;;21.20;99.90;;;;;;4966510;28;20130;-69
2022/09/04 11:14:14;;;;;;;11.18;2.20;;;21.20;99.90;;;;;;4953291;28;20035;-69
2022/09/04 11:17:10;;;;;;;8.80;2.40;;;21.10;99.90;;;;;;4964244;28;20081;-69
2022/09/04 11:19:56;;;;;;;10.52;2.50;;;21.20;99.90;;;;;;4967107;28;20049;-68
2022/09/04 11:22:33;;;;;;;15.07;2.60;;;21.10;99.90;;;;;;4968099;28;20042;-69
2022/09/04 11:25:22;;;;;;;8.00;2.25;;;21.10;99.90;;;;;;4981472;28;20049;-69
2022/09/04 11:28:13;;;;;;;9.38;2.38;;;21.10;99.90;;;;;;5006815;28;20034;-69
2022/09/04 11:31:00;;;;;;;11.95;2.50;;;21.20;99.90;;;;;;4981511;28;20078;-69
2022/09/04 11:33:54;;;;;;;8.38;2.67;;;21.20;99.90;;;;;;5000001;28;20499;-69
2022/09/04 11:36:28;;;;;;;9.45;2.80;;;21.20;99.90;;;;;;5005227;28;20128;-70
2022/09/04 11:39:17;;;;;;;8.02;2.40;;;21.30;99.90;;;;;;4999645;28;20041;-70
2022/09/04 11:41:51;;;;;;;7.50;2.70;;;21.30;99.90;;;;;;4997686;28;20054;-70
2022/09/04 11:44:45;;;;;;;10.85;2.95;;;21.40;99.90;;;;;;5068626;27;20063;-69
2022/09/04 11:47:57;;;;;;;12.35;3.17;;;21.40;99.90;;;;;;5108021;27;20055;-69
2022/09/04 11:50:56;;;;;;;10.52;2.50;;;21.30;99.90;;;;;;5110203;27;20027;-70
2022/09/04 11:53:41;;;;;;;9.00;2.25;;;21.40;99.90;;;;;;5114969;27;20035;-70
2022/09/04 11:56:37;;;;;;;10.32;2.15;;;21.40;99.90;;;;;;5113997;27;20770;-69
2022/09/04 11:59:42;;;;;;;7.75;2.30;;;21.60;99.90;;;;;;5122026;27;20031;-69
2022/09/04 12:02:31;;;;;;;9.73;2.80;;;21.80;99.90;;;;;;5113032;27;20036;-70
2022/09/04 12:05:17;;;;;;;;;;;21.90;99.90;;;;;;5110500;27;20080;-70
2022/09/04 12:08:22;;;;;;;10.32;3.08;;;22.10;99.90;;;;;;5116798;27;19911;-70
2022/09/04 12:11:17;;;;;;;11.00;2.60;;;22.20;99.90;;;;;;5110931;27;20043;-70
2022/09/04 12:14:13;;;;;;;9.85;2.50;;;22.40;99.90;;;;;;5099869;27;20400;-70
2022/09/04 12:17:14;;;;;;;9.20;2.30;;;22.40;99.90;;;;;;5109656;27;20035;-69
2022/09/04 12:19:49;;;;;;;11.77;2.90;;;22.30;99.90;;;;;;5112839;27;20035;-70
2022/09/04 12:22:43;;;;;;;9.77;2.58;;;22.40;99.90;;;;;;5095582;27;20080;-69
2022/09/04 12:25:09;;;;;;;8.90;2.85;;;22.50;99.90;;;;;;5102518;28;20024;-70
2022/09/04 12:28:14;;;;;;;8.95;2.40;;;22.50;99.90;;;;;;5107044;27;20035;-69
2022/09/04 12:31:29;;;;;;;8.25;2.05;;;22.50;99.90;;;;;;5098351;27;20055;-70
2022/09/04 12:34:25;;;;;;;8.90;2.08;;;22.70;99.90;;;;;;5099908;28;20789;-70
2022/09/04 12:37:06;;;;;;;11.88;2.80;;;22.90;99.90;;;;;;5094290;28;20036;-70
2022/09/04 12:39:56;;;;;;;7.55;2.03;;;23.00;99.90;;;;;;5096471;28;20122;-69
2022/09/04 12:42:31;;;;;;;8.05;2.28;;;22.90;99.90;;;;;;5105046;28;20054;-70
2022/09/04 12:45:22;;;;;;;8.63;2.20;;;22.90;99.90;;;;;;5111673;28;20119;-69
2022/09/04 12:48:09;;;;;;;6.50;1.80;;;23.00;99.90;;;;;;5108284;28;20481;-70
2022/09/04 12:50:56;;;;;;;6.43;2.10;;;23.20;99.90;;;;;;5102139;28;20703;-71
2022/09/04 12:53:44;;;;;;;6.60;1.90;;;23.20;99.90;;;;;;5108477;28;20127;-69
2022/09/04 12:56:27;;;;;;;8.88;1.90;;;23.20;99.90;;;;;;5086898;28;20477;-70
2022/09/04 12:59:22;;;;;;;6.57;2.17;;;23.00;99.90;;;;;;5103820;28;20031;-69
2022/09/04 13:02:12;;;;;;;7.60;1.70;;;23.00;99.90;;;;;;5103407;28;20023;-69
2022/09/04 13:04:54;;;;;;;8.90;2.50;;;23.10;99.90;;;;;;5114601;28;20038;-68
2022/09/04 13:07:52;;;;;;;7.18;2.17;;;23.20;99.90;;;;;;5097466;28;20040;-69
2022/09/04 13:10:48;;;;;;;8.15;2.33;;;23.40;99.90;;;;;;5091986;28;20105;-68
2022/09/04 13:13:38;;;;;;;9.25;2.15;;;23.30;99.90;;;;;;5096419;28;20028;-68
2022/09/04 13:16:42;;;;;;;6.55;1.95;;;23.30;99.90;;;;;;5107568;28;20040;-70
2022/09/04 13:19:45;;;;;;;7.03;2.35;;;23.40;99.90;;;;;;5112690;28;20023;-69
2022/09/04 13:22:29;;;;;;;13.55;3.20;;;23.70;99.90;;;;;;5045922;28;20165;-71
2022/09/04 13:25:24;;;;;;;8.63;2.28;;;24.10;99.90;;;;;;5044551;28;20163;-69
2022/09/04 13:27:59;;;;;;;7.50;1.90;;;24.40;99.90;;;;;;5040358;28;20056;-69
2022/09/04 13:30:26;;;;;;;11.15;2.58;;;24.40;98.90;;;;;;5042693;28;20490;-70
2022/09/04 13:33:12;;;;;;;8.55;2.10;;;24.20;99.10;;;;;;5048398;28;20047;-69
2022/09/04 13:35:57;;;;;;;8.60;2.20;;;23.80;99.10;;;;;;5057586;28;20164;-69
2022/09/04 13:38:41;;;;;;;9.30;2.60;;;23.60;99.90;;;;;;5031530;28;20048;-68
2022/09/04 13:41:35;;;;;;;8.70;2.65;;;23.80;99.80;;;;;;5047978;28;20135;-69
2022/09/04 13:44:21;;;;;;;5.68;2.00;;;24.70;99.20;;;;;;5051308;28;20037;-68
2022/09/04 13:47:06;;;;;;;7.43;2.08;;;25.00;97.30;;;;;;5048285;28;20115;-69
2022/09/04 13:49:37;;;;;;;6.82;1.77;;;25.20;96.70;;;;;;5034090;28;20088;-69
2022/09/04 13:52:30;;;;;;;7.32;2.35;;;25.00;95.60;;;;;;5065097;28;20045;-68
2022/09/04 13:55:23;;;;;;;7.93;2.80;;;24.70;97.10;;;;;;5068016;28;20029;-68
2022/09/04 13:57:56;;;;;;;7.78;2.00;;;24.50;96.40;;;;;;5067478;27;20061;-68
2022/09/04 14:00:23;;;;;;;12.68;3.03;;;24.40;96.70;;;;;;5102221;27;20036;-69
2022/09/04 14:02:56;;;;;;;6.47;1.80;;;24.40;96.80;;;;;;5106184;28;20112;-69
2022/09/04 14:05:24;;;;;;;6.97;1.60;;;24.30;95.90;;;;;;5103057;28;20063;-68
2022/09/04 14:08:01;;;;;;;7.00;1.73;;;24.30;95.10;;;;;;5110981;28;20114;-68
2022/09/04 14:10:57;;;;;;;6.78;2.10;;;24.20;95.90;;;;;;5092170;28;20089;-70
2022/09/04 14:13:50;;;;;;;6.25;1.55;;;24.20;97.00;;;;;;5111360;28;20062;-69
2022/09/04 14:16:17;;;;;;;6.13;1.85;;;24.30;95.30;;;;;;5110655;28;20036;-71
2022/09/04 14:18:58;;;;;;;9.43;1.88;;;24.30;94.80;;;;;;5120279;27;20027;-70